createdAt,value
2023-03-19T00:01:10.926Z,100198.28
2023-03-19T00:03:44.968Z,100201.70
2023-03-19T00:06:13.919Z,100201.95
2023-03-19T00:08:42.255Z,100200.98
2023-03-19T00:11:13.386Z,100205.49
2023-03-19T00:13:41.755Z,100201.73
2023-03-19T00:16:10.229Z,100205.75
2023-03-19T00:18:38.633Z,100207.06
2023-03-19T00:21:07.257Z,100204.52
2023-03-19T00:23:37.059Z,100202.84
2023-03-19T00:26:06.927Z,100210.77
2023-03-19T00:28:37.308Z,100210.94
2023-03-19T00:31:12.788Z,100210.39
2023-03-19T00:33:42.940Z,100205.48
2023-03-19T00:36:11.972Z,100206.13
2023-03-19T00:38:40.412Z,100206.27
2023-03-19T00:41:09.398Z,100205.64
2023-03-19T00:43:38.474Z,100205.52
2023-03-19T00:46:07.280Z,100207.97
2023-03-19T00:48:36.148Z,100207.84
2023-03-19T00:51:08.891Z,100207.14
2023-03-19T00:53:39.833Z,100205.77
2023-03-19T00:56:10.799Z,100202.84
2023-03-19T00:58:41.260Z,100197.98
2023-03-19T01:01:13.289Z,100196.96
2023-03-19T01:03:41.885Z,100199.52
2023-03-19T01:06:10.599Z,100198.94
2023-03-19T01:08:38.930Z,100197.87
2023-03-19T01:11:18.013Z,100195.27
2023-03-19T01:13:46.748Z,100196.27
2023-03-19T01:16:15.124Z,100190.25
2023-03-19T01:18:43.523Z,100180.94
2023-03-19T01:21:11.875Z,100182.00
2023-03-19T01:23:40.991Z,100186.85
2023-03-19T01:26:09.410Z,100193.40
2023-03-19T01:28:37.738Z,100195.95
2023-03-19T01:31:08.895Z,100195.88
2023-03-19T01:33:37.857Z,100191.35
2023-03-19T01:36:08.053Z,100185.77
2023-03-19T01:38:36.755Z,100188.84
2023-03-19T01:41:05.331Z,100186.39
2023-03-19T01:43:33.693Z,100185.98
2023-03-19T01:46:11.834Z,100186.69
2023-03-19T01:48:51.654Z,100187.95
2023-03-19T01:51:26.486Z,100191.25
2023-03-19T01:54:00.581Z,100190.00
2023-03-19T01:56:35.433Z,100196.17
2023-03-19T01:59:22.165Z,100190.23
2023-03-19T02:02:31.514Z,100187.75
2023-03-19T02:05:14.765Z,100192.12
2023-03-19T02:07:46.320Z,100193.40
2023-03-19T02:10:17.728Z,100193.26
2023-03-19T02:12:46.625Z,100193.50
2023-03-19T02:15:15.725Z,100190.97
2023-03-19T02:17:44.184Z,100191.91
2023-03-19T02:20:34.313Z,100194.77
2023-03-19T02:23:34.927Z,100191.94
2023-03-19T02:26:07.697Z,100195.80
2023-03-19T02:28:41.464Z,100199.16
2023-03-19T02:31:11.124Z,100195.97
2023-03-19T02:33:40.135Z,100195.84
2023-03-19T02:36:20.169Z,100195.86
2023-03-19T02:38:48.934Z,100196.77
2023-03-19T02:41:17.722Z,100198.90
2023-03-19T02:43:46.648Z,100195.65
2023-03-19T02:46:15.021Z,100198.95
2023-03-19T02:48:44.101Z,100201.61
2023-03-19T02:51:13.641Z,100196.91
2023-03-19T02:53:42.020Z,100192.61
2023-03-19T02:56:10.538Z,100196.04
2023-03-19T02:58:38.911Z,100194.98
2023-03-19T03:01:07.458Z,100198.07
2023-03-19T03:03:35.831Z,100196.52
2023-03-19T03:06:04.331Z,100199.09
2023-03-19T03:08:33.419Z,100201.52
2023-03-19T03:11:02.022Z,100200.79
2023-03-19T03:13:30.353Z,100198.92
2023-03-19T03:15:59.100Z,100194.97
2023-03-19T03:18:28.017Z,100194.46
2023-03-19T03:20:56.745Z,100193.79
2023-03-19T03:23:25.224Z,100193.67
2023-03-19T03:25:53.608Z,100196.68
2023-03-19T03:28:21.967Z,100202.11
2023-03-19T03:30:51.125Z,100207.34
2023-03-19T03:33:19.761Z,100204.48
2023-03-19T03:35:48.309Z,100204.39
2023-03-19T03:38:16.708Z,100204.59
2023-03-19T03:40:45.053Z,100211.17
2023-03-19T03:43:13.399Z,100211.23
2023-03-19T03:45:43.744Z,100211.11
2023-03-19T03:48:12.045Z,100216.15
2023-03-19T03:50:40.924Z,100218.45
2023-03-19T03:53:12.174Z,100215.56
2023-03-19T03:55:41.448Z,100211.00
2023-03-19T03:58:09.956Z,100209.07
2023-03-19T04:00:39.245Z,100203.75
2023-03-19T04:03:07.653Z,100205.17
2023-03-19T04:05:37.169Z,100208.13
2023-03-19T04:08:07.971Z,100210.10
2023-03-19T04:10:42.271Z,100212.06
2023-03-19T04:13:12.870Z,100211.13
2023-03-19T04:15:44.861Z,100210.13
2023-03-19T04:18:13.222Z,100211.38
2023-03-19T04:20:42.028Z,100212.59
2023-03-19T04:23:10.357Z,100212.11
2023-03-19T04:25:41.737Z,100207.48
2023-03-19T04:28:10.481Z,100207.05
2023-03-19T04:30:39.034Z,100209.17
2023-03-19T04:33:07.724Z,100215.25
2023-03-19T04:35:36.377Z,100216.33
2023-03-19T04:38:05.544Z,100212.11
2023-03-19T04:40:34.139Z,100206.84
2023-03-19T04:43:02.885Z,100204.67
2023-03-19T04:45:31.316Z,100202.99
2023-03-19T04:47:59.960Z,100200.50
2023-03-19T04:50:29.367Z,100205.94
2023-03-19T04:52:57.694Z,100201.53
2023-03-19T04:55:26.151Z,100201.27
2023-03-19T04:57:54.572Z,100197.16
2023-03-19T05:00:22.955Z,100194.99
2023-03-19T05:02:51.367Z,100194.19
2023-03-19T05:05:19.730Z,100194.21
2023-03-19T05:07:48.144Z,100195.61
2023-03-19T05:10:16.674Z,100193.52
2023-03-19T05:12:49.169Z,100195.56
2023-03-19T05:15:17.666Z,100193.11
2023-03-19T05:17:46.030Z,100198.95
2023-03-19T05:20:15.603Z,100202.02
2023-03-19T05:22:43.955Z,100203.16
2023-03-19T05:25:13.549Z,100198.40
2023-03-19T05:27:41.917Z,100201.08
2023-03-19T05:30:12.437Z,100204.41
2023-03-19T05:32:40.979Z,100203.80
2023-03-19T05:35:09.856Z,100206.27
2023-03-19T05:37:38.517Z,100207.17
2023-03-19T05:40:07.899Z,100210.48
2023-03-19T05:42:36.762Z,100211.50
2023-03-19T05:45:05.742Z,100214.79
2023-03-19T05:47:35.095Z,100218.84
2023-03-19T05:50:04.053Z,100217.62
2023-03-19T05:52:32.497Z,100212.55
2023-03-19T05:55:01.052Z,100210.15
2023-03-19T05:57:29.380Z,100209.65
2023-03-19T05:59:57.893Z,100209.40
2023-03-19T06:02:26.304Z,100210.69
2023-03-19T06:04:54.652Z,100214.91
2023-03-19T06:07:23.091Z,100214.30
2023-03-19T06:09:51.881Z,100217.98
2023-03-19T06:12:20.702Z,100215.90
2023-03-19T06:14:49.136Z,100213.95
2023-03-19T06:17:17.485Z,100215.56
2023-03-19T06:19:46.337Z,100214.94
2023-03-19T06:22:14.732Z,100221.84
2023-03-19T06:24:43.086Z,100228.86
2023-03-19T06:27:11.599Z,100228.63
2023-03-19T06:29:40.060Z,100226.48
2023-03-19T06:32:09.796Z,100228.11
2023-03-19T06:34:38.613Z,100228.99
2023-03-19T06:37:07.553Z,100235.17
2023-03-19T06:39:35.872Z,100237.19
2023-03-19T06:42:04.700Z,100241.83
2023-03-19T06:44:33.553Z,100247.56
2023-03-19T06:47:01.863Z,100242.25
2023-03-19T06:49:30.630Z,100241.53
2023-03-19T06:51:59.016Z,100238.34
2023-03-19T06:54:27.332Z,100240.71
2023-03-19T06:56:55.682Z,100240.32
2023-03-19T06:59:23.990Z,100243.05
2023-03-19T07:01:52.643Z,100246.91
2023-03-19T07:04:21.426Z,100249.16
2023-03-19T07:06:49.787Z,100247.23
2023-03-19T07:09:18.159Z,100246.83
2023-03-19T07:11:46.784Z,100246.06
2023-03-19T07:14:15.374Z,100245.46
2023-03-19T07:16:43.721Z,100247.40
2023-03-19T07:19:12.174Z,100250.23
2023-03-19T07:21:40.477Z,100249.35
2023-03-19T07:24:08.828Z,100247.32
2023-03-19T07:26:37.125Z,100251.13
2023-03-19T07:29:06.406Z,100248.41
2023-03-19T07:31:34.945Z,100248.95
2023-03-19T07:34:03.874Z,100247.49
2023-03-19T07:36:32.898Z,100247.47
2023-03-19T07:39:01.360Z,100251.55
2023-03-19T07:41:29.774Z,100252.55
2023-03-19T07:43:58.142Z,100255.62
2023-03-19T07:46:26.626Z,100263.48
2023-03-19T07:48:55.403Z,100265.05
2023-03-19T07:51:23.798Z,100270.87
2023-03-19T07:53:52.203Z,100268.88
2023-03-19T07:56:20.553Z,100270.81
2023-03-19T07:58:49.123Z,100272.70
2023-03-19T08:01:18.718Z,100271.74
2023-03-19T08:03:48.627Z,100267.45
2023-03-19T08:06:17.033Z,100256.17
2023-03-19T08:08:45.638Z,100257.86
2023-03-19T08:11:14.099Z,100259.20
2023-03-19T08:13:42.761Z,100258.11
2023-03-19T08:16:11.779Z,100256.52
2023-03-19T08:18:40.224Z,100253.02
2023-03-19T08:21:08.751Z,100255.05
2023-03-19T08:23:37.113Z,100253.95
2023-03-19T08:26:05.435Z,100250.28
2023-03-19T08:28:34.337Z,100250.47
2023-03-19T08:31:11.903Z,100250.35
2023-03-19T08:33:41.360Z,100249.61
2023-03-19T08:36:14.660Z,100250.41
2023-03-19T08:38:43.763Z,100250.80
2023-03-19T08:41:12.464Z,100245.65
2023-03-19T08:43:40.928Z,100246.30
2023-03-19T08:46:09.441Z,100251.41
2023-03-19T08:48:39.704Z,100255.71
2023-03-19T08:51:10.876Z,100251.26
2023-03-19T08:53:39.243Z,100248.77
2023-03-19T08:56:08.744Z,100252.30
2023-03-19T08:58:37.362Z,100250.88
2023-03-19T09:01:11.975Z,100247.42
2023-03-19T09:03:42.785Z,100240.88
2023-03-19T09:06:14.675Z,100243.61
2023-03-19T09:08:43.402Z,100245.60
2023-03-19T09:11:12.149Z,100240.38
2023-03-19T09:13:40.766Z,100235.77
2023-03-19T09:16:09.582Z,100239.45
2023-03-19T09:18:37.996Z,100243.43
2023-03-19T09:21:06.378Z,100239.55
2023-03-19T09:23:34.675Z,100237.38
2023-03-19T09:26:03.076Z,100227.90
2023-03-19T09:28:31.779Z,100226.41
2023-03-19T09:31:00.299Z,100232.41
2023-03-19T09:33:28.654Z,100235.66
2023-03-19T09:35:57.201Z,100234.88
2023-03-19T09:38:25.631Z,100230.02
2023-03-19T09:41:28.545Z,100231.14
2023-03-19T09:44:10.812Z,100234.20
2023-03-19T09:46:50.070Z,100227.39
2023-03-19T09:49:33.556Z,100225.13
2023-03-19T09:52:28.568Z,100223.96
2023-03-19T09:55:03.108Z,100226.70
2023-03-19T09:57:33.321Z,100223.48
2023-03-19T10:00:06.829Z,100221.52
2023-03-19T10:02:43.668Z,100216.91
2023-03-19T10:05:54.199Z,100212.20
2023-03-19T10:08:51.675Z,100211.36
2023-03-19T10:12:04.770Z,100206.07
2023-03-19T10:14:54.065Z,100200.75
2023-03-19T10:17:33.035Z,100189.71
2023-03-19T10:20:22.930Z,100188.05
2023-03-19T10:23:00.579Z,100192.08
2023-03-19T10:25:41.638Z,100201.95
2023-03-19T10:28:17.425Z,100201.30
2023-03-19T10:31:02.737Z,100204.17
2023-03-19T10:33:52.442Z,100206.17
2023-03-19T10:36:27.320Z,100204.01
2023-03-19T10:38:56.147Z,100200.11
2023-03-19T10:41:41.011Z,100195.47
2023-03-19T10:44:27.438Z,100193.20
2023-03-19T10:46:59.844Z,100193.02
2023-03-19T10:49:28.177Z,100189.83
2023-03-19T10:51:58.013Z,100181.35
2023-03-19T10:54:28.964Z,100177.73
2023-03-19T10:57:01.289Z,100174.77
2023-03-19T10:59:29.498Z,100172.73
2023-03-19T11:02:02.556Z,100173.58
2023-03-19T11:04:32.393Z,100169.68
2023-03-19T11:07:12.545Z,100170.07
2023-03-19T11:09:53.293Z,100169.57
2023-03-19T11:12:33.979Z,100167.96
2023-03-19T11:15:04.080Z,100164.11
2023-03-19T11:17:57.482Z,100162.98
2023-03-19T11:20:38.548Z,100158.23
2023-03-19T11:23:15.804Z,100155.16
2023-03-19T11:25:53.285Z,100150.15
2023-03-19T11:28:26.501Z,100146.81
2023-03-19T11:31:29.102Z,100142.27
2023-03-19T11:34:18.831Z,100137.83
2023-03-19T11:37:15.234Z,100134.33
2023-03-19T11:40:14.764Z,100139.94
2023-03-19T11:43:23.688Z,100150.34
2023-03-19T11:46:13.344Z,100153.73
2023-03-19T11:49:22.862Z,100152.61
2023-03-19T11:52:01.797Z,100147.59
2023-03-19T11:54:54.675Z,100141.04
2023-03-19T11:57:43.672Z,100137.20
2023-03-19T12:00:35.506Z,100134.15
2023-03-19T12:03:22.284Z,100131.46
2023-03-19T12:06:35.045Z,100125.08
2023-03-19T12:09:52.868Z,100124.70
2023-03-19T12:12:46.469Z,100121.62
2023-03-19T12:15:42.775Z,100125.06
2023-03-19T12:18:39.225Z,100120.60
2023-03-19T12:21:31.216Z,100117.73
2023-03-19T12:24:04.205Z,100116.23
2023-03-19T12:27:04.299Z,100115.37
2023-03-19T12:29:57.214Z,100118.89
2023-03-19T12:32:42.406Z,100128.83
2023-03-19T12:35:16.539Z,100124.58
2023-03-19T12:37:53.764Z,100120.17
2023-03-19T12:40:37.489Z,100120.27
2023-03-19T12:43:34.834Z,100111.40
2023-03-19T12:46:19.416Z,100109.26
2023-03-19T12:48:55.038Z,100108.95
2023-03-19T12:51:35.226Z,100108.89
2023-03-19T12:54:32.731Z,100106.48
2023-03-19T12:57:31.204Z,100104.70
2023-03-19T13:00:24.508Z,100099.58
2023-03-19T13:03:22.477Z,100096.45
2023-03-19T13:06:08.597Z,100090.23
2023-03-19T13:09:05.655Z,100087.33
2023-03-19T13:11:46.247Z,100085.05
2023-03-19T13:14:48.492Z,100079.46
2023-03-19T13:17:53.307Z,100080.85
2023-03-19T13:20:50.800Z,100082.35
2023-03-19T13:23:27.391Z,100079.77
2023-03-19T13:25:59.119Z,100078.99
2023-03-19T13:28:37.162Z,100079.88
2023-03-19T13:31:20.758Z,100086.60
2023-03-19T13:34:12.443Z,100093.00
2023-03-19T13:36:41.223Z,100090.98
2023-03-19T13:39:18.289Z,100083.61
2023-03-19T13:42:09.123Z,100078.23
2023-03-19T13:45:36.264Z,100077.60
2023-03-19T13:48:26.740Z,100077.39
2023-03-19T13:51:26.757Z,100074.27
2023-03-19T13:54:13.614Z,100078.94
2023-03-19T13:57:04.992Z,100071.71
2023-03-19T13:59:36.247Z,100066.17
2023-03-19T14:02:25.603Z,100066.33
2023-03-19T14:05:10.463Z,100064.45
2023-03-19T14:07:42.248Z,100063.34
2023-03-19T14:10:29.097Z,100061.91
2023-03-19T14:13:04.962Z,100056.92
2023-03-19T14:15:35.479Z,100055.20
2023-03-19T14:18:06.298Z,100052.30
2023-03-19T14:20:59.518Z,100057.15
2023-03-19T14:23:40.889Z,100055.77
2023-03-19T14:26:25.514Z,100055.19
2023-03-19T14:29:07.391Z,100055.59
2023-03-19T14:31:38.796Z,100055.56
2023-03-19T14:34:43.648Z,100053.43
2023-03-19T14:37:37.045Z,100051.17
2023-03-19T14:40:26.050Z,100050.11
2023-03-19T14:43:47.682Z,100050.56
2023-03-19T14:46:33.921Z,100051.20
2023-03-19T14:49:50.386Z,100049.77
2023-03-19T14:52:45.051Z,100052.22
2023-03-19T14:55:16.037Z,100050.61
2023-03-19T14:57:44.609Z,100050.54
2023-03-19T15:00:18.316Z,100051.00
2023-03-19T15:02:52.863Z,100054.51
2023-03-19T15:05:29.355Z,100051.40
2023-03-19T15:08:03.998Z,100050.14
2023-03-19T15:10:51.506Z,100048.92
2023-03-19T15:14:08.851Z,100054.38
2023-03-19T15:17:12.665Z,100050.70
2023-03-19T15:19:41.713Z,100049.80
2023-03-19T15:22:20.610Z,100050.34
2023-03-19T15:24:49.077Z,100048.20
2023-03-19T15:27:26.761Z,100045.69
2023-03-19T15:30:04.948Z,100049.55
2023-03-19T15:33:10.566Z,100052.02
2023-03-19T15:35:35.615Z,100055.40
2023-03-19T15:38:12.386Z,100053.66
2023-03-19T15:40:41.792Z,100056.40
2023-03-19T15:43:13.295Z,100056.80
2023-03-19T15:45:48.240Z,100058.08
2023-03-19T15:48:35.246Z,100058.75
2023-03-19T15:51:07.438Z,100058.58
2023-03-19T15:53:38.752Z,100059.40
2023-03-19T15:56:08.457Z,100066.88
2023-03-19T15:58:47.180Z,100067.16
2023-03-19T16:01:20.023Z,100067.34
2023-03-19T16:04:13.584Z,100069.21
2023-03-19T16:06:42.267Z,100072.86
2023-03-19T16:09:13.679Z,100072.01
2023-03-19T16:11:44.674Z,100080.89
2023-03-19T16:14:27.159Z,100078.33
2023-03-19T16:17:11.414Z,100082.49
2023-03-19T16:19:54.143Z,100082.57
2023-03-19T16:22:33.130Z,100083.11
2023-03-19T16:25:06.840Z,100086.10
2023-03-19T16:27:40.590Z,100085.74
2023-03-19T16:30:30.907Z,100084.93
2023-03-19T16:33:06.950Z,100084.91
2023-03-19T16:35:38.013Z,100082.31
2023-03-19T16:38:14.956Z,100082.38
2023-03-19T16:40:47.982Z,100082.88
2023-03-19T16:43:25.950Z,100085.98
2023-03-19T16:46:08.483Z,100088.27
2023-03-19T16:48:36.919Z,100084.34
2023-03-19T16:51:17.963Z,100085.58
2023-03-19T16:53:48.525Z,100091.73
2023-03-19T16:56:18.864Z,100097.10
2023-03-19T16:58:48.692Z,100098.34
2023-03-19T17:01:24.982Z,100100.16
2023-03-19T17:03:54.242Z,100099.93
2023-03-19T17:06:26.041Z,100104.29
2023-03-19T17:08:56.489Z,100103.42
2023-03-19T17:11:39.099Z,100105.79
2023-03-19T17:14:16.404Z,100107.13
2023-03-19T17:16:51.951Z,100107.45
2023-03-19T17:19:24.551Z,100106.63
2023-03-19T17:21:59.749Z,100108.69
2023-03-19T17:24:33.921Z,100115.41
2023-03-19T17:27:05.227Z,100116.14
2023-03-19T17:29:35.938Z,100114.00
2023-03-19T17:32:07.806Z,100120.98
2023-03-19T17:36:52.197Z,100122.63
2023-03-19T17:39:20.540Z,100124.35
2023-03-19T17:41:50.004Z,100118.13
2023-03-19T17:44:18.416Z,100119.88
2023-03-19T17:46:50.496Z,100118.95
2023-03-19T17:49:31.750Z,100123.29
2023-03-19T17:52:00.733Z,100121.86
2023-03-19T17:54:29.131Z,100122.51
2023-03-19T17:56:57.461Z,100120.87
2023-03-19T17:59:25.835Z,100119.58
2023-03-19T18:01:54.261Z,100123.65
2023-03-19T18:04:22.774Z,100118.60
2023-03-19T18:06:55.500Z,100117.73
2023-03-19T18:09:28.496Z,100124.58
2023-03-19T18:11:56.990Z,100122.87
2023-03-19T18:14:25.301Z,100127.60
2023-03-19T18:16:53.687Z,100128.92
2023-03-19T18:19:34.955Z,100125.17
2023-03-19T18:22:16.613Z,100125.55
2023-03-19T18:24:45.324Z,100126.20
2023-03-19T18:27:14.766Z,100126.35
2023-03-19T18:29:43.207Z,100126.39
2023-03-19T18:32:17.510Z,100125.54
2023-03-19T18:34:46.231Z,100128.46
2023-03-19T18:37:18.585Z,100130.37
2023-03-19T18:39:47.468Z,100133.73
2023-03-19T18:42:16.561Z,100133.23
2023-03-19T18:44:44.984Z,100129.41
2023-03-19T18:47:16.315Z,100133.08
2023-03-19T18:49:44.913Z,100135.39
2023-03-19T18:52:17.213Z,100138.41
2023-03-19T18:54:47.706Z,100142.66
2023-03-19T18:57:16.857Z,100143.26
2023-03-19T18:59:45.906Z,100148.55
2023-03-19T19:02:34.374Z,100148.19
2023-03-19T19:05:03.604Z,100149.60
2023-03-19T19:07:31.994Z,100147.88
2023-03-19T19:10:00.807Z,100147.78
2023-03-19T19:12:29.211Z,100150.69
2023-03-19T19:15:05.073Z,100152.22
2023-03-19T19:17:35.158Z,100151.80
2023-03-19T19:20:03.912Z,100152.90
2023-03-19T19:22:32.294Z,100151.20
2023-03-19T19:25:00.710Z,100151.64
2023-03-19T19:27:29.172Z,100149.86
2023-03-19T19:29:57.625Z,100149.00
2023-03-19T19:32:29.572Z,100149.13
2023-03-19T19:34:58.081Z,100143.06
2023-03-19T19:37:26.390Z,100142.84
2023-03-19T19:39:54.801Z,100150.33
2023-03-19T19:42:23.604Z,100150.13
2023-03-19T19:44:55.636Z,100147.81
2023-03-19T19:47:24.440Z,100142.86
2023-03-19T19:49:52.896Z,100145.30
2023-03-19T19:52:21.274Z,100146.27
2023-03-19T19:54:51.888Z,100146.04
2023-03-19T19:57:25.092Z,100144.03
2023-03-19T19:59:55.366Z,100148.67
2023-03-19T20:02:29.287Z,100152.82
2023-03-19T20:04:58.878Z,100152.77
2023-03-19T20:07:27.335Z,100155.30
2023-03-19T20:09:56.247Z,100155.83
2023-03-19T20:12:33.343Z,100158.40
2023-03-19T20:15:02.355Z,100160.83
2023-03-19T20:17:30.802Z,100163.35
2023-03-19T20:19:59.142Z,100166.02
2023-03-19T20:22:27.546Z,100160.68
2023-03-19T20:24:56.009Z,100160.46
2023-03-19T20:27:32.359Z,100162.73
2023-03-19T20:30:00.871Z,100166.15
2023-03-19T20:32:38.341Z,100167.98
2023-03-19T20:35:20.919Z,100167.15
2023-03-19T20:37:52.098Z,100171.19
2023-03-19T20:40:23.878Z,100171.86
2023-03-19T20:42:52.606Z,100164.17
2023-03-19T20:45:24.993Z,100167.91
2023-03-19T20:47:54.239Z,100169.02
2023-03-19T20:50:29.871Z,100171.11
2023-03-19T20:53:01.521Z,100174.70
2023-03-19T20:55:34.134Z,100169.67
2023-03-19T20:58:14.346Z,100174.86
2023-03-19T21:00:43.414Z,100174.02
2023-03-19T21:03:22.479Z,100176.68
2023-03-19T21:05:55.692Z,100179.20
2023-03-19T21:08:48.056Z,100180.75
2023-03-19T21:11:23.043Z,100185.14
2023-03-19T21:13:53.202Z,100183.98
2023-03-19T21:16:27.437Z,100185.10
2023-03-19T21:18:57.797Z,100187.30
2023-03-19T21:21:37.169Z,100187.66
2023-03-19T21:24:15.759Z,100184.88
2023-03-19T21:26:46.337Z,100186.71
2023-03-19T21:29:29.491Z,100183.52
2023-03-19T21:31:58.160Z,100185.84
2023-03-19T21:34:28.454Z,100185.38
2023-03-19T21:36:56.875Z,100184.92
2023-03-19T21:39:25.208Z,100183.95
2023-03-19T21:41:53.980Z,100188.43
2023-03-19T21:45:03.129Z,100189.73
2023-03-19T21:47:31.516Z,100191.18
2023-03-19T21:50:00.484Z,100190.41
2023-03-19T21:52:28.914Z,100191.20
2023-03-19T21:54:57.264Z,100186.80
2023-03-19T21:57:25.821Z,100184.63
2023-03-19T21:59:54.254Z,100185.70
2023-03-19T22:02:23.218Z,100183.89
2023-03-19T22:04:51.932Z,100184.23
2023-03-19T22:07:20.760Z,100184.02
2023-03-19T22:09:49.179Z,100182.43
2023-03-19T22:12:27.502Z,100182.50
2023-03-19T22:14:55.992Z,100176.38
2023-03-19T22:27:14.791Z,100186.34
2023-03-19T22:29:45.843Z,100185.59
2023-03-19T22:32:19.168Z,100185.77
2023-03-19T22:34:47.803Z,100193.46
2023-03-19T22:37:28.095Z,100186.96
2023-03-19T22:39:56.592Z,100184.51
2023-03-19T22:42:26.394Z,100186.77
2023-03-19T22:44:54.893Z,100184.56
2023-03-19T22:47:26.106Z,100185.16
2023-03-19T22:49:54.520Z,100185.77
2023-03-19T22:52:22.986Z,100185.34
2023-03-19T22:54:53.760Z,100186.69
2023-03-19T22:57:22.171Z,100193.38
2023-03-19T22:59:51.298Z,100188.30
2023-03-19T23:02:19.690Z,100187.81
2023-03-19T23:04:48.157Z,100193.09
2023-03-19T23:07:16.606Z,100191.59
2023-03-19T23:09:44.981Z,100194.05
2023-03-19T23:12:13.715Z,100194.24
2023-03-19T23:14:42.055Z,100197.00
2023-03-19T23:17:17.513Z,100199.85
2023-03-19T23:19:46.075Z,100205.66
2023-03-19T23:22:17.362Z,100207.00
2023-03-19T23:24:45.784Z,100206.77
2023-03-19T23:27:26.325Z,100205.73
2023-03-19T23:29:54.938Z,100204.66
2023-03-19T23:32:23.329Z,100204.01
2023-03-19T23:35:00.543Z,100200.30
2023-03-19T23:37:30.088Z,100199.48
2023-03-19T23:39:58.402Z,100199.10
2023-03-19T23:42:30.257Z,100199.39
2023-03-19T23:45:03.614Z,100198.38
2023-03-19T23:47:32.969Z,100200.48
2023-03-19T23:50:01.319Z,100201.98
2023-03-19T23:52:29.685Z,100201.94
2023-03-19T23:54:58.821Z,100204.82
2023-03-19T23:57:27.284Z,100203.13
2023-03-19T23:59:56.281Z,100203.03
